createdAt,value
2022-11-10T00:00:18.435Z,12.80
2022-11-10T00:03:10.972Z,12.80
2022-11-10T00:05:42.454Z,12.80
2022-11-10T00:08:14.569Z,12.80
2022-11-10T00:10:58.535Z,12.80
2022-11-10T00:13:30.419Z,12.80
2022-11-10T00:16:28.295Z,12.80
2022-11-10T00:18:56.771Z,12.80
2022-11-10T00:21:27.109Z,12.80
2022-11-10T00:23:58.944Z,12.80
2022-11-10T00:26:27.126Z,12.80
2022-11-10T00:28:55.650Z,12.80
2022-11-10T00:31:28.547Z,12.90
2022-11-10T00:33:57.008Z,12.90
2022-11-10T00:36:26.379Z,12.90
2022-11-10T00:39:16.161Z,12.90
2022-11-10T00:41:44.250Z,12.90
2022-11-10T00:44:15.769Z,12.90
2022-11-10T00:46:45.776Z,12.90
2022-11-10T00:49:18.352Z,12.90
2022-11-10T00:51:48.811Z,12.90
2022-11-10T00:54:17.080Z,12.90
2022-11-10T00:56:45.631Z,12.90
2022-11-10T00:59:15.883Z,12.90
2022-11-10T01:01:47.158Z,12.90
2022-11-10T01:04:15.612Z,12.90
2022-11-10T01:06:44.537Z,12.90
2022-11-10T01:09:32.991Z,13.00
2022-11-10T01:12:03.009Z,13.00
2022-11-10T01:14:35.818Z,12.90
2022-11-10T01:17:05.280Z,12.90
2022-11-10T01:19:34.795Z,12.90
2022-11-10T01:22:04.788Z,12.90
2022-11-10T01:24:54.264Z,12.90
2022-11-10T01:27:25.055Z,12.90
2022-11-10T01:29:57.060Z,12.90
2022-11-10T01:32:28.318Z,12.90
2022-11-10T01:35:16.578Z,12.90
2022-11-10T01:37:47.062Z,12.90
2022-11-10T01:40:15.520Z,12.80
2022-11-10T01:42:49.495Z,12.90
2022-11-10T01:45:53.505Z,12.90
2022-11-10T01:48:31.280Z,12.90
2022-11-10T01:51:05.929Z,12.90
2022-11-10T01:53:39.737Z,12.90
2022-11-10T01:56:10.569Z,12.90
2022-11-10T01:58:42.847Z,12.90
2022-11-10T02:01:13.588Z,12.90
2022-11-10T02:04:09.808Z,12.90
2022-11-10T02:06:41.208Z,12.90
2022-11-10T02:09:09.781Z,12.90
2022-11-10T02:11:39.574Z,12.80
2022-11-10T02:14:08.530Z,12.80
2022-11-10T02:16:57.453Z,12.80
2022-11-10T02:19:46.936Z,12.80
2022-11-10T02:22:41.960Z,12.90
2022-11-10T02:25:10.492Z,12.80
2022-11-10T02:27:42.302Z,12.80
2022-11-10T02:30:33.161Z,12.80
2022-11-10T02:33:04.208Z,12.70
2022-11-10T02:35:35.840Z,12.70
2022-11-10T02:38:06.176Z,12.70
2022-11-10T02:40:54.363Z,12.70
2022-11-10T02:43:23.149Z,12.70
2022-11-10T02:45:55.700Z,12.60
2022-11-10T02:48:23.716Z,12.60
2022-11-10T02:50:52.151Z,12.60
2022-11-10T02:53:23.417Z,12.60
2022-11-10T02:56:12.887Z,12.50
2022-11-10T02:59:29.178Z,12.50
2022-11-10T03:02:19.782Z,12.50
2022-11-10T03:04:49.571Z,12.50
2022-11-10T03:07:17.845Z,12.40
2022-11-10T03:09:49.105Z,12.40
2022-11-10T03:12:17.658Z,12.40
2022-11-10T03:14:47.992Z,12.40
2022-11-10T03:17:21.741Z,12.40
2022-11-10T03:19:52.541Z,12.30
2022-11-10T03:22:23.245Z,12.30
2022-11-10T03:24:56.155Z,12.30
2022-11-10T03:27:26.620Z,12.30
2022-11-10T03:29:57.551Z,12.30
2022-11-10T03:32:26.175Z,12.30
2022-11-10T03:34:56.953Z,12.30
2022-11-10T03:37:25.419Z,12.30
2022-11-10T03:39:55.506Z,12.30
2022-11-10T03:42:25.066Z,12.20
2022-11-10T03:45:16.417Z,12.20
2022-11-10T03:47:47.627Z,12.20
2022-11-10T03:50:18.590Z,12.20
2022-11-10T03:52:48.037Z,12.10
2022-11-10T03:55:21.607Z,12.20
2022-11-10T03:58:00.579Z,12.10
2022-11-10T04:00:30.706Z,12.20
2022-11-10T04:03:00.403Z,12.20
2022-11-10T04:05:50.425Z,12.10
2022-11-10T04:08:37.624Z,12.10
2022-11-10T04:11:10.243Z,12.10
2022-11-10T04:13:56.211Z,12.10
2022-11-10T04:16:27.600Z,12.00
2022-11-10T04:18:57.870Z,12.00
2022-11-10T04:21:46.836Z,12.10
2022-11-10T04:24:15.609Z,12.00
2022-11-10T04:26:48.878Z,12.00
2022-11-10T04:29:19.358Z,12.00
2022-11-10T04:31:49.175Z,12.00
2022-11-10T04:34:20.027Z,12.00
2022-11-10T04:37:12.428Z,12.00
2022-11-10T04:39:45.747Z,11.90
2022-11-10T04:42:22.494Z,11.90
2022-11-10T04:44:52.900Z,12.00
2022-11-10T04:47:50.497Z,12.00
2022-11-10T04:50:40.494Z,12.00
2022-11-10T04:53:12.179Z,12.00
2022-11-10T04:55:43.855Z,12.00
2022-11-10T04:58:28.352Z,12.00
2022-11-10T05:01:16.866Z,12.00
2022-11-10T05:04:17.586Z,12.00
2022-11-10T05:07:29.632Z,12.00
2022-11-10T05:09:57.995Z,12.00
2022-11-10T05:12:27.378Z,12.00
2022-11-10T05:14:56.941Z,12.00
2022-11-10T05:17:27.774Z,12.00
2022-11-10T05:19:55.700Z,11.90
2022-11-10T05:22:23.940Z,11.90
2022-11-10T05:24:52.106Z,12.00
2022-11-10T05:27:21.210Z,12.00
2022-11-10T05:29:50.455Z,11.90
2022-11-10T05:32:19.944Z,11.90
2022-11-10T05:35:10.020Z,12.00
2022-11-10T05:37:40.961Z,11.90
2022-11-10T05:40:10.063Z,11.90
2022-11-10T05:42:44.169Z,11.90
2022-11-10T05:45:12.104Z,11.90
2022-11-10T05:47:42.628Z,11.90
2022-11-10T05:50:11.172Z,11.90
2022-11-10T05:52:46.323Z,11.90
2022-11-10T05:55:20.074Z,11.90
2022-11-10T05:57:49.646Z,11.90
2022-11-10T06:00:21.376Z,11.90
2022-11-10T06:03:00.218Z,11.90
2022-11-10T06:05:31.314Z,11.90
2022-11-10T06:08:00.095Z,11.90
2022-11-10T06:10:28.287Z,11.90
2022-11-10T06:12:56.753Z,11.90
2022-11-10T06:15:25.286Z,11.80
2022-11-10T06:17:53.661Z,11.90
2022-11-10T06:20:23.768Z,11.90
2022-11-10T06:23:02.898Z,11.90
2022-11-10T06:25:31.605Z,11.80
2022-11-10T06:28:00.396Z,11.90
2022-11-10T06:30:29.666Z,11.80
2022-11-10T06:32:57.775Z,11.80
2022-11-10T06:35:27.584Z,11.90
2022-11-10T06:38:00.112Z,11.90
2022-11-10T06:40:28.675Z,11.90
2022-11-10T06:42:56.577Z,11.90
2022-11-10T06:45:24.956Z,11.90
2022-11-10T06:48:00.812Z,11.90
2022-11-10T06:50:30.266Z,11.90
2022-11-10T06:52:59.493Z,11.90
2022-11-10T06:55:27.516Z,11.90
2022-11-10T06:57:55.619Z,11.90
2022-11-10T07:00:23.784Z,11.90
2022-11-10T07:03:00.331Z,11.90
2022-11-10T07:05:29.878Z,11.90
2022-11-10T07:08:02.341Z,11.90
2022-11-10T07:10:30.280Z,11.90
2022-11-10T07:12:58.723Z,11.90
2022-11-10T07:15:26.613Z,12.00
2022-11-10T07:17:54.482Z,11.90
2022-11-10T07:20:22.672Z,12.00
2022-11-10T07:22:57.860Z,12.00
2022-11-10T07:25:26.065Z,12.00
2022-11-10T07:27:55.528Z,12.00
2022-11-10T07:30:23.736Z,12.00
2022-11-10T07:32:59.988Z,12.00
2022-11-10T07:35:29.412Z,12.00
2022-11-10T07:38:02.129Z,12.00
2022-11-10T07:40:30.046Z,12.10
2022-11-10T07:42:58.049Z,12.10
2022-11-10T07:45:26.670Z,12.10
2022-11-10T07:47:59.708Z,12.10
2022-11-10T07:50:27.712Z,12.10
2022-11-10T07:53:05.518Z,12.20
2022-11-10T07:55:33.934Z,12.20
2022-11-10T07:58:02.168Z,12.30
2022-11-10T08:00:30.246Z,12.30
2022-11-10T08:03:03.649Z,12.30
2022-11-10T08:05:31.742Z,12.30
2022-11-10T08:08:00.079Z,12.30
2022-11-10T08:10:29.544Z,12.40
2022-11-10T08:12:58.693Z,12.40
2022-11-10T08:15:27.971Z,12.40
2022-11-10T08:18:00.364Z,12.40
2022-11-10T08:20:28.689Z,12.40
2022-11-10T08:23:00.649Z,12.50
2022-11-10T08:25:34.812Z,12.50
2022-11-10T08:28:05.042Z,12.50
2022-11-10T08:30:34.174Z,12.50
2022-11-10T08:33:04.373Z,12.50
2022-11-10T08:35:35.937Z,12.50
2022-11-10T08:38:09.786Z,12.50
2022-11-10T08:40:40.063Z,12.60
2022-11-10T08:43:08.657Z,12.60
2022-11-10T08:45:36.859Z,12.60
2022-11-10T08:48:07.590Z,12.60
2022-11-10T08:50:36.177Z,12.70
2022-11-10T08:53:04.974Z,12.60
2022-11-10T08:55:33.023Z,12.70
2022-11-10T08:58:03.435Z,12.70
2022-11-10T09:00:32.536Z,12.70
2022-11-10T09:03:06.577Z,12.70
2022-11-10T09:05:35.858Z,12.80
2022-11-10T09:08:05.000Z,12.80
2022-11-10T09:10:33.577Z,12.80
2022-11-10T09:13:04.432Z,13.00
2022-11-10T09:15:33.840Z,13.00
2022-11-10T09:18:02.739Z,13.00
2022-11-10T09:20:32.803Z,13.10
2022-11-10T09:23:06.464Z,13.10
2022-11-10T09:25:35.008Z,13.10
2022-11-10T09:28:04.311Z,13.20
2022-11-10T09:30:32.500Z,13.20
2022-11-10T09:33:01.717Z,13.30
2022-11-10T09:35:29.775Z,13.40
2022-11-10T09:37:57.699Z,13.30
2022-11-10T09:40:38.812Z,13.30
2022-11-10T09:43:15.847Z,13.40
2022-11-10T09:45:48.065Z,13.50
2022-11-10T09:48:20.760Z,13.50
2022-11-10T09:50:53.786Z,13.50
2022-11-10T09:53:25.759Z,13.60
2022-11-10T09:55:59.613Z,13.70
2022-11-10T09:58:36.482Z,13.80
2022-11-10T10:01:19.137Z,13.80
2022-11-10T10:03:51.190Z,13.90
2022-11-10T10:06:21.222Z,13.90
2022-11-10T10:09:04.864Z,14.00
2022-11-10T10:12:07.881Z,14.10
2022-11-10T10:14:52.571Z,14.10
2022-11-10T10:17:27.741Z,14.10
2022-11-10T10:20:03.286Z,14.20
2022-11-10T10:22:58.545Z,14.20
2022-11-10T10:25:28.858Z,14.20
2022-11-10T10:28:05.607Z,14.30
2022-11-10T10:30:35.098Z,14.30
2022-11-10T10:33:14.329Z,14.30
2022-11-10T10:35:43.785Z,14.40
2022-11-10T10:38:19.084Z,14.40
2022-11-10T10:40:50.134Z,14.40
2022-11-10T10:43:18.297Z,14.40
2022-11-10T10:46:05.064Z,14.50
2022-11-10T10:48:33.034Z,14.50
2022-11-10T10:51:00.971Z,14.50
2022-11-10T10:53:29.213Z,14.60
2022-11-10T10:56:00.976Z,14.50
2022-11-10T10:58:31.218Z,14.60
2022-11-10T11:01:08.866Z,14.60
2022-11-10T11:03:43.064Z,14.60
2022-11-10T11:06:22.126Z,14.60
2022-11-10T11:09:00.108Z,14.70
2022-11-10T11:11:31.056Z,14.70
2022-11-10T11:14:16.760Z,14.80
2022-11-10T11:16:51.230Z,14.80
2022-11-10T11:19:21.498Z,14.80
2022-11-10T11:22:11.984Z,14.70
2022-11-10T11:24:44.686Z,14.80
2022-11-10T11:27:19.363Z,14.90
2022-11-10T11:30:06.886Z,14.90
2022-11-10T11:33:06.380Z,14.80
2022-11-10T11:35:45.512Z,14.80
2022-11-10T11:38:16.206Z,14.90
2022-11-10T11:40:51.388Z,14.90
2022-11-10T11:43:31.547Z,14.90
2022-11-10T11:46:07.673Z,15.00
2022-11-10T11:48:51.056Z,15.00
2022-11-10T11:51:27.194Z,15.00
2022-11-10T11:54:29.325Z,15.00
2022-11-10T11:57:05.448Z,14.90
2022-11-10T11:59:53.484Z,14.90
2022-11-10T12:02:37.731Z,14.90
2022-11-10T12:05:18.901Z,14.90
2022-11-10T12:07:56.439Z,14.90
2022-11-10T12:10:33.055Z,14.90
2022-11-10T12:13:25.840Z,14.90
2022-11-10T12:15:58.277Z,14.90
2022-11-10T12:18:31.542Z,14.90
2022-11-10T12:21:16.603Z,14.90
2022-11-10T12:24:04.881Z,14.80
2022-11-10T12:26:42.219Z,14.80
2022-11-10T12:29:22.975Z,14.90
2022-11-10T12:31:56.045Z,14.80
2022-11-10T12:34:33.293Z,14.90
2022-11-10T12:37:06.806Z,15.00
2022-11-10T12:39:45.334Z,15.00
2022-11-10T12:42:18.341Z,15.00
2022-11-10T12:44:59.417Z,15.00
2022-11-10T12:47:32.495Z,15.10
2022-11-10T12:50:24.381Z,15.10
2022-11-10T12:52:58.480Z,15.10
2022-11-10T12:55:35.458Z,15.20
2022-11-10T12:58:07.985Z,15.20
2022-11-10T13:00:42.747Z,15.20
2022-11-10T13:03:16.680Z,15.20
2022-11-10T13:05:46.243Z,15.20
2022-11-10T13:08:33.108Z,15.20
2022-11-10T13:11:07.139Z,15.10
2022-11-10T13:13:46.853Z,15.10
2022-11-10T13:16:49.497Z,15.20
2022-11-10T13:19:52.018Z,15.20
2022-11-10T13:22:39.305Z,15.20
2022-11-10T13:25:44.218Z,15.20
2022-11-10T13:28:13.611Z,15.20
2022-11-10T13:30:45.495Z,15.30
2022-11-10T13:33:38.136Z,15.20
2022-11-10T13:36:06.867Z,15.20
2022-11-10T13:38:40.153Z,15.20
2022-11-10T13:41:25.394Z,15.10
2022-11-10T13:43:55.903Z,15.20
2022-11-10T13:46:34.806Z,15.20
2022-11-10T13:49:24.389Z,15.20
2022-11-10T13:52:06.068Z,15.20
2022-11-10T13:55:02.848Z,15.20
2022-11-10T13:57:36.699Z,15.10
2022-11-10T14:00:25.591Z,15.20
2022-11-10T14:03:00.988Z,15.20
2022-11-10T14:06:07.138Z,15.20
2022-11-10T14:08:45.351Z,15.20
2022-11-10T14:11:27.876Z,15.20
2022-11-10T14:14:01.825Z,15.20
2022-11-10T14:16:33.583Z,15.20
2022-11-10T14:19:06.602Z,15.20
2022-11-10T14:21:40.987Z,15.20
2022-11-10T14:24:17.328Z,15.20
2022-11-10T14:26:49.543Z,15.30
2022-11-10T14:29:38.507Z,15.20
2022-11-10T14:32:16.162Z,15.30
2022-11-10T14:34:48.753Z,15.20
2022-11-10T14:37:22.755Z,15.20
2022-11-10T14:39:53.710Z,15.20
2022-11-10T14:42:25.455Z,15.20
2022-11-10T14:45:07.768Z,15.20
2022-11-10T14:47:37.812Z,15.20
2022-11-10T14:50:19.391Z,15.20
2022-11-10T14:52:50.403Z,15.20
2022-11-10T14:55:22.117Z,15.10
2022-11-10T14:57:59.725Z,15.10
2022-11-10T15:00:28.780Z,15.10
2022-11-10T15:02:59.366Z,15.10
2022-11-10T15:05:27.555Z,15.20
2022-11-10T15:07:57.277Z,15.10
2022-11-10T15:10:27.569Z,15.10
2022-11-10T15:13:03.889Z,15.00
2022-11-10T15:15:31.953Z,15.00
2022-11-10T15:18:01.289Z,15.00
2022-11-10T15:20:38.168Z,15.00
2022-11-10T15:23:16.391Z,15.00
2022-11-10T15:25:46.049Z,14.90
2022-11-10T15:28:27.741Z,14.90
2022-11-10T15:30:58.540Z,14.90
2022-11-10T15:33:30.942Z,14.90
2022-11-10T15:36:15.643Z,14.90
2022-11-10T15:38:43.736Z,14.90
2022-11-10T15:41:14.401Z,14.90
2022-11-10T15:43:42.465Z,14.90
2022-11-10T15:46:18.536Z,14.90
2022-11-10T15:48:50.493Z,14.80
2022-11-10T15:51:25.939Z,14.80
2022-11-10T15:53:54.745Z,14.80
2022-11-10T15:56:24.895Z,14.80
2022-11-10T15:58:56.570Z,14.80
2022-11-10T16:01:28.840Z,14.70
2022-11-10T16:03:58.486Z,14.70
2022-11-10T16:06:27.564Z,14.70
2022-11-10T16:08:55.742Z,14.60
2022-11-10T16:11:24.476Z,14.60
2022-11-10T16:13:53.942Z,14.50
2022-11-10T16:16:24.078Z,14.50
2022-11-10T16:18:52.662Z,14.50
2022-11-10T16:21:24.134Z,14.50
2022-11-10T16:23:53.236Z,14.40
2022-11-10T16:26:23.947Z,14.40
2022-11-10T16:28:51.999Z,14.40
2022-11-10T16:31:21.899Z,14.40
2022-11-10T16:33:50.721Z,14.40
2022-11-10T16:36:25.960Z,14.30
2022-11-10T16:38:54.708Z,14.30
2022-11-10T16:41:23.950Z,14.40
2022-11-10T16:43:51.917Z,14.30
2022-11-10T16:46:24.058Z,14.30
2022-11-10T16:48:54.043Z,14.30
2022-11-10T16:51:28.506Z,14.30
2022-11-10T16:53:56.821Z,14.30
2022-11-10T16:56:26.759Z,14.30
2022-11-10T16:58:54.946Z,14.20
2022-11-10T17:01:25.932Z,14.20
2022-11-10T17:03:56.467Z,14.20
2022-11-10T17:06:27.491Z,14.20
2022-11-10T17:08:59.204Z,14.20
2022-11-10T17:11:27.607Z,14.20
2022-11-10T17:13:55.477Z,14.20
2022-11-10T17:16:29.206Z,14.20
2022-11-10T17:18:58.823Z,14.20
2022-11-10T17:21:32.850Z,14.10
2022-11-10T17:24:01.616Z,14.20
2022-11-10T17:26:30.770Z,14.10
2022-11-10T17:28:58.918Z,14.10
2022-11-10T17:31:26.872Z,14.10
2022-11-10T17:33:55.188Z,14.10
2022-11-10T17:36:24.424Z,14.10
2022-11-10T17:38:53.859Z,14.10
2022-11-10T17:41:22.280Z,14.10
2022-11-10T17:43:50.196Z,14.00
2022-11-10T17:46:18.215Z,14.00
2022-11-10T17:48:47.857Z,14.00
2022-11-10T17:51:19.615Z,14.00
2022-11-10T17:53:47.738Z,13.90
2022-11-10T17:56:17.129Z,13.90
2022-11-10T17:58:45.026Z,13.90
2022-11-10T18:01:16.754Z,13.80
2022-11-10T18:03:44.775Z,13.80
2022-11-10T18:06:15.520Z,13.80
2022-11-10T18:08:43.777Z,13.90
2022-11-10T18:11:12.690Z,13.80
2022-11-10T18:13:43.343Z,13.80
2022-11-10T18:16:12.953Z,13.80
2022-11-10T18:18:41.269Z,13.80
2022-11-10T18:21:10.719Z,13.80
2022-11-10T18:23:38.736Z,13.80
2022-11-10T18:26:08.115Z,13.80
2022-11-10T18:28:37.107Z,13.80
2022-11-10T18:31:10.969Z,13.70
2022-11-10T18:33:39.019Z,13.70
2022-11-10T18:36:09.172Z,13.70
2022-11-10T18:38:37.196Z,13.70
2022-11-10T18:41:20.510Z,13.60
2022-11-10T18:43:49.888Z,13.70
2022-11-10T18:46:19.647Z,13.60
2022-11-10T18:48:48.482Z,13.70
2022-11-10T18:51:16.847Z,13.70
2022-11-10T18:53:45.385Z,13.70
2022-11-10T18:56:14.397Z,13.70
2022-11-10T18:58:44.341Z,13.70
2022-11-10T19:01:14.303Z,13.70
2022-11-10T19:03:44.256Z,13.70
2022-11-10T19:06:16.460Z,13.70
2022-11-10T19:08:50.848Z,13.70
2022-11-10T19:11:20.125Z,13.70
2022-11-10T19:13:48.507Z,13.70
2022-11-10T19:16:19.134Z,13.70
2022-11-10T19:18:48.854Z,13.80
2022-11-10T19:21:20.760Z,13.70
2022-11-10T19:23:49.351Z,13.80
2022-11-10T19:26:22.607Z,13.80
2022-11-10T19:28:55.444Z,13.80
2022-11-10T19:31:25.055Z,13.80
2022-11-10T19:33:56.672Z,13.80
2022-11-10T19:36:25.981Z,13.80
2022-11-10T19:38:55.129Z,13.80
2022-11-10T19:41:25.481Z,13.80
2022-11-10T19:43:54.385Z,13.90
2022-11-10T19:46:24.488Z,13.90
2022-11-10T19:48:56.374Z,13.80
2022-11-10T19:51:26.188Z,13.80
2022-11-10T19:53:59.060Z,13.80
2022-11-10T19:56:31.481Z,13.80
2022-11-10T19:59:02.269Z,13.80
2022-11-10T20:01:32.734Z,13.80
2022-11-10T20:04:03.197Z,13.80
2022-11-10T20:06:31.679Z,13.70
2022-11-10T20:08:59.898Z,13.70
2022-11-10T20:11:28.350Z,13.70
2022-11-10T20:13:59.112Z,13.70
2022-11-10T20:16:27.253Z,13.70
2022-11-10T20:18:55.333Z,13.70
2022-11-10T20:21:26.230Z,13.70
2022-11-10T20:23:55.724Z,13.70
2022-11-10T20:26:25.439Z,13.70
2022-11-10T20:28:54.129Z,13.70
2022-11-10T20:31:24.466Z,13.70
2022-11-10T20:33:53.735Z,13.60
2022-11-10T20:36:23.876Z,13.70
2022-11-10T20:38:57.211Z,13.70
2022-11-10T20:41:28.389Z,13.70
2022-11-10T20:43:56.733Z,13.70
2022-11-10T20:46:52.828Z,13.60
2022-11-10T20:49:13.337Z,13.60
2022-11-10T20:51:44.773Z,13.60
2022-11-10T20:54:15.198Z,13.60
2022-11-10T20:56:43.198Z,13.60
2022-11-10T20:59:12.055Z,13.60
2022-11-10T21:01:42.388Z,13.60
2022-11-10T21:04:11.067Z,13.60
2022-11-10T21:06:39.285Z,13.50
2022-11-10T21:09:07.920Z,13.60
2022-11-10T21:11:54.768Z,13.50
2022-11-10T21:14:23.020Z,13.50
2022-11-10T21:17:00.211Z,13.50
2022-11-10T21:19:28.319Z,13.50
2022-11-10T21:21:56.218Z,13.40
2022-11-10T21:24:24.222Z,13.50
2022-11-10T21:26:53.608Z,13.50
2022-11-10T21:29:21.547Z,13.40
2022-11-10T21:31:49.463Z,13.40
2022-11-10T21:34:17.617Z,13.40
2022-11-10T21:36:45.542Z,13.50
2022-11-10T21:39:13.463Z,13.30
2022-11-10T21:41:41.525Z,13.40
2022-11-10T21:44:12.029Z,13.40
2022-11-10T21:46:40.005Z,13.40
2022-11-10T21:49:08.339Z,13.40
2022-11-10T21:51:36.392Z,13.40
2022-11-10T21:54:04.908Z,13.40
2022-11-10T21:56:32.897Z,13.40
2022-11-10T21:59:01.054Z,13.40
2022-11-10T22:01:30.586Z,13.40
2022-11-10T22:03:58.643Z,13.40
2022-11-10T22:06:46.623Z,13.40
2022-11-10T22:09:34.643Z,13.40
2022-11-10T22:12:19.928Z,13.40
2022-11-10T22:15:05.926Z,13.40
2022-11-10T22:17:52.554Z,13.40
2022-11-10T22:20:20.646Z,13.40
2022-11-10T22:22:50.146Z,13.40
2022-11-10T22:25:18.443Z,13.40
2022-11-10T22:27:46.423Z,13.50
2022-11-10T22:30:15.740Z,13.40
2022-11-10T22:33:05.156Z,13.40
2022-11-10T22:35:46.332Z,13.50
2022-11-10T22:38:14.874Z,13.50
2022-11-10T22:41:02.398Z,13.40
2022-11-10T22:43:48.659Z,13.50
2022-11-10T22:46:16.636Z,13.50
2022-11-10T22:48:46.940Z,13.50
2022-11-10T22:51:15.000Z,13.50
2022-11-10T22:53:44.080Z,13.50
2022-11-10T22:56:12.564Z,13.50
2022-11-10T22:58:40.498Z,13.50
2022-11-10T23:01:10.629Z,13.40
2022-11-10T23:03:39.176Z,13.40
2022-11-10T23:06:09.290Z,13.40
2022-11-10T23:08:37.344Z,13.40
2022-11-10T23:11:07.635Z,13.40
2022-11-10T23:13:36.388Z,13.40
2022-11-10T23:16:06.616Z,13.40
2022-11-10T23:18:35.213Z,13.40
2022-11-10T23:21:05.259Z,13.40
2022-11-10T23:23:36.210Z,13.40
2022-11-10T23:26:06.740Z,13.30
2022-11-10T23:28:36.144Z,13.30
2022-11-10T23:31:26.098Z,13.30
2022-11-10T23:33:57.857Z,13.30
2022-11-10T23:36:27.333Z,13.30
2022-11-10T23:38:57.331Z,13.30
2022-11-10T23:41:26.140Z,13.20
2022-11-10T23:43:54.367Z,13.20
2022-11-10T23:46:23.669Z,13.10
2022-11-10T23:48:52.111Z,13.10
2022-11-10T23:51:20.342Z,13.10
2022-11-10T23:53:48.337Z,13.10
2022-11-10T23:56:17.688Z,13.00
2022-11-10T23:58:48.654Z,13.00
